createdAt,value
2024-01-17T00:00:09.344Z,978.13
2024-01-17T00:01:09.498Z,978.16
2024-01-17T00:02:09.356Z,978.15
2024-01-17T00:03:09.401Z,978.10
2024-01-17T00:04:09.286Z,978.18
2024-01-17T00:05:09.276Z,978.13
2024-01-17T00:06:09.333Z,978.17
2024-01-17T00:07:09.295Z,978.17
2024-01-17T00:08:09.283Z,978.22
2024-01-17T00:09:09.369Z,978.12
2024-01-17T00:10:09.223Z,978.21
2024-01-17T00:11:09.233Z,978.17
2024-01-17T00:12:09.336Z,978.26
2024-01-17T00:13:09.193Z,978.15
2024-01-17T00:14:09.189Z,978.18
2024-01-17T00:15:09.224Z,978.24
2024-01-17T00:16:09.168Z,978.20
2024-01-17T00:17:09.149Z,978.18
2024-01-17T00:18:09.227Z,978.14
2024-01-17T00:19:09.259Z,978.20
2024-01-17T00:20:09.157Z,978.19
2024-01-17T00:21:09.129Z,978.09
2024-01-17T00:22:09.085Z,978.13
2024-01-17T00:23:09.094Z,978.13
2024-01-17T00:24:09.100Z,977.99
2024-01-17T00:25:09.112Z,978.06
2024-01-17T00:26:09.071Z,978.06
2024-01-17T00:27:09.058Z,978.06
2024-01-17T00:28:09.041Z,978.02
2024-01-17T00:29:09.024Z,977.96
2024-01-17T00:30:09.132Z,978.03
2024-01-17T00:31:09.058Z,977.95
2024-01-17T00:32:09.030Z,977.96
2024-01-17T00:33:09.189Z,977.96
2024-01-17T00:34:09.145Z,977.93
2024-01-17T00:35:09.021Z,977.96
2024-01-17T00:36:09.034Z,977.91
2024-01-17T00:37:08.929Z,977.97
2024-01-17T00:38:08.966Z,977.91
2024-01-17T00:39:08.940Z,977.90
2024-01-17T00:40:08.896Z,977.82
2024-01-17T00:41:08.908Z,977.76
2024-01-17T00:42:08.952Z,977.90
2024-01-17T00:43:08.880Z,977.87
2024-01-17T00:44:08.859Z,977.79
2024-01-17T00:45:09.936Z,977.74
2024-01-17T00:46:08.840Z,977.68
2024-01-17T00:47:08.847Z,977.68
2024-01-17T00:48:08.906Z,977.60
2024-01-17T00:49:09.035Z,977.65
2024-01-17T00:50:08.790Z,977.65
2024-01-17T00:51:08.890Z,977.57
2024-01-17T00:52:08.837Z,977.55
2024-01-17T00:53:08.765Z,977.60
2024-01-17T00:54:08.805Z,977.57
2024-01-17T00:55:08.809Z,977.60
2024-01-17T00:56:08.756Z,977.57
2024-01-17T00:57:08.791Z,977.62
2024-01-17T00:58:08.715Z,977.57
2024-01-17T00:59:08.692Z,977.58
2024-01-17T01:00:09.055Z,977.61
2024-01-17T01:01:08.728Z,977.58
2024-01-17T01:02:08.659Z,977.58
2024-01-17T01:03:08.941Z,977.66
2024-01-17T01:04:08.764Z,977.64
2024-01-17T01:05:08.738Z,977.64
2024-01-17T01:06:08.718Z,977.64
2024-01-17T01:07:08.626Z,977.63
2024-01-17T01:08:08.648Z,977.61
2024-01-17T01:09:08.691Z,977.57
2024-01-17T01:10:08.609Z,977.66
2024-01-17T01:11:08.596Z,977.53
2024-01-17T01:12:08.765Z,977.54
2024-01-17T01:13:08.605Z,977.54
2024-01-17T01:14:08.554Z,977.45
2024-01-17T01:15:08.654Z,977.43
2024-01-17T01:16:08.566Z,977.41
2024-01-17T01:17:08.533Z,977.39
2024-01-17T01:18:08.800Z,977.38
2024-01-17T01:19:08.631Z,977.44
2024-01-17T01:20:08.507Z,977.39
2024-01-17T01:21:08.628Z,977.32
2024-01-17T01:22:08.476Z,977.31
2024-01-17T01:23:08.482Z,977.29
2024-01-17T01:24:08.486Z,977.29
2024-01-17T01:25:08.470Z,977.24
2024-01-17T01:26:08.449Z,977.22
2024-01-17T01:27:08.507Z,977.22
2024-01-17T01:28:08.431Z,977.21
2024-01-17T01:29:08.449Z,977.23
2024-01-17T01:30:08.519Z,977.22
2024-01-17T01:31:08.441Z,977.15
2024-01-17T01:32:08.396Z,977.19
2024-01-17T01:33:08.541Z,977.13
2024-01-17T01:34:08.433Z,977.09
2024-01-17T01:35:08.337Z,977.13
2024-01-17T01:36:08.395Z,977.16
2024-01-17T01:37:08.399Z,977.16
2024-01-17T01:38:08.292Z,977.12
2024-01-17T01:39:08.452Z,977.03
2024-01-17T01:40:08.322Z,977.07
2024-01-17T01:41:08.288Z,977.02
2024-01-17T01:42:08.307Z,977.01
2024-01-17T01:43:08.262Z,977.13
2024-01-17T01:44:08.262Z,977.02
2024-01-17T01:45:08.281Z,977.01
2024-01-17T01:46:08.245Z,976.99
2024-01-17T01:47:08.228Z,976.95
2024-01-17T01:48:08.293Z,976.94
2024-01-17T01:49:08.275Z,976.94
2024-01-17T01:50:40.566Z,976.87
2024-01-17T01:51:08.234Z,976.87
2024-01-17T01:52:08.223Z,976.86
2024-01-17T01:53:08.266Z,976.81
2024-01-17T01:54:08.290Z,976.80
2024-01-17T01:55:08.113Z,976.78
2024-01-17T01:56:08.122Z,976.68
2024-01-17T01:57:08.233Z,976.68
2024-01-17T01:58:08.114Z,976.69
2024-01-17T01:59:08.068Z,976.65
2024-01-17T02:00:08.110Z,976.62
2024-01-17T02:01:08.166Z,976.66
2024-01-17T02:02:08.093Z,976.64
2024-01-17T02:03:08.163Z,976.57
2024-01-17T02:04:08.096Z,976.57
2024-01-17T02:05:08.099Z,976.53
2024-01-17T02:06:08.026Z,976.54
2024-01-17T02:07:08.037Z,976.59
2024-01-17T02:08:08.003Z,976.56
2024-01-17T02:09:08.121Z,976.54
2024-01-17T02:10:07.979Z,976.48
2024-01-17T02:11:09.648Z,976.45
2024-01-17T02:12:09.068Z,976.48
2024-01-17T02:13:07.925Z,976.44
2024-01-17T02:14:07.936Z,976.48
2024-01-17T02:15:07.920Z,976.44
2024-01-17T02:16:07.915Z,976.40
2024-01-17T02:17:07.924Z,976.42
2024-01-17T02:18:07.958Z,976.37
2024-01-17T02:19:07.940Z,976.37
2024-01-17T02:20:07.859Z,976.36
2024-01-17T02:21:08.003Z,976.42
2024-01-17T02:22:07.845Z,976.37
2024-01-17T02:23:07.913Z,976.31
2024-01-17T02:24:07.932Z,976.28
2024-01-17T02:25:07.895Z,976.22
2024-01-17T02:26:07.797Z,976.17
2024-01-17T02:27:07.931Z,976.20
2024-01-17T02:28:07.807Z,976.24
2024-01-17T02:29:07.753Z,976.21
2024-01-17T02:30:07.863Z,976.16
2024-01-17T02:31:07.799Z,976.14
2024-01-17T02:32:07.730Z,976.15
2024-01-17T02:33:07.815Z,976.06
2024-01-17T02:34:07.921Z,976.02
2024-01-17T02:35:07.708Z,976.06
2024-01-17T02:36:07.718Z,976.06
2024-01-17T02:37:07.677Z,975.96
2024-01-17T02:38:07.713Z,975.99
2024-01-17T02:39:07.764Z,976.00
2024-01-17T02:40:07.658Z,975.99
2024-01-17T02:41:07.759Z,976.04
2024-01-17T02:42:07.819Z,975.99
2024-01-17T02:43:07.616Z,975.89
2024-01-17T02:44:07.618Z,975.91
2024-01-17T02:45:07.729Z,975.91
2024-01-17T02:46:07.578Z,975.91
2024-01-17T02:47:07.634Z,975.87
2024-01-17T02:48:07.632Z,975.86
2024-01-17T02:49:07.594Z,975.83
2024-01-17T02:50:07.544Z,975.79
2024-01-17T02:51:07.694Z,975.79
2024-01-17T02:52:07.526Z,975.70
2024-01-17T02:53:07.504Z,975.65
2024-01-17T02:54:07.544Z,975.72
2024-01-17T02:55:07.476Z,975.67
2024-01-17T02:56:07.485Z,975.72
2024-01-17T02:57:07.663Z,975.78
2024-01-17T02:58:07.477Z,975.72
2024-01-17T02:59:07.429Z,975.65
2024-01-17T03:00:07.516Z,975.66
2024-01-17T03:01:07.471Z,975.65
2024-01-17T03:02:07.392Z,975.67
2024-01-17T03:03:07.573Z,975.69
2024-01-17T03:04:07.416Z,975.65
2024-01-17T03:05:07.379Z,975.70
2024-01-17T03:06:07.407Z,975.72
2024-01-17T03:07:07.411Z,975.67
2024-01-17T03:08:07.376Z,975.75
2024-01-17T03:09:07.370Z,975.75
2024-01-17T03:10:07.333Z,975.68
2024-01-17T03:11:07.314Z,975.65
2024-01-17T03:12:07.336Z,975.60
2024-01-17T03:13:07.398Z,975.48
2024-01-17T03:14:07.278Z,975.45
2024-01-17T03:15:07.324Z,975.43
2024-01-17T03:16:07.258Z,975.49
2024-01-17T03:17:07.286Z,975.48
2024-01-17T03:18:07.342Z,975.40
2024-01-17T03:19:07.444Z,975.40
2024-01-17T03:20:07.352Z,975.36
2024-01-17T03:21:07.260Z,975.33
2024-01-17T03:22:07.203Z,975.36
2024-01-17T03:23:07.215Z,975.27
2024-01-17T03:24:07.238Z,975.22
2024-01-17T03:25:07.257Z,975.32
2024-01-17T03:26:07.195Z,975.24
2024-01-17T03:27:07.256Z,975.23
2024-01-17T03:28:07.134Z,975.19
2024-01-17T03:29:07.236Z,975.16
2024-01-17T03:30:07.322Z,975.18
2024-01-17T03:31:07.216Z,975.10
2024-01-17T03:32:07.115Z,975.09
2024-01-17T03:33:07.234Z,975.17
2024-01-17T03:34:07.159Z,975.05
2024-01-17T03:35:07.060Z,975.04
2024-01-17T03:36:07.210Z,975.01
2024-01-17T03:37:08.860Z,975.00
2024-01-17T03:38:07.075Z,974.89
2024-01-17T03:39:07.076Z,974.92
2024-01-17T03:40:07.024Z,974.92
2024-01-17T03:41:07.043Z,974.93
2024-01-17T03:42:07.245Z,974.95
2024-01-17T03:43:07.038Z,974.88
2024-01-17T03:44:06.982Z,974.97
2024-01-17T03:45:07.207Z,974.94
2024-01-17T03:46:06.966Z,974.86
2024-01-17T03:47:06.986Z,974.88
2024-01-17T03:48:07.069Z,974.91
2024-01-17T03:49:07.050Z,974.78
2024-01-17T03:50:06.948Z,974.80
2024-01-17T03:51:07.009Z,974.85
2024-01-17T03:52:06.898Z,974.80
2024-01-17T03:53:06.917Z,974.74
2024-01-17T03:54:06.950Z,974.74
2024-01-17T03:55:06.860Z,974.69
2024-01-17T03:56:06.880Z,974.63
2024-01-17T03:57:06.922Z,974.71
2024-01-17T03:58:06.845Z,974.68
2024-01-17T03:59:06.863Z,974.65
2024-01-17T04:00:06.955Z,974.57
2024-01-17T04:01:06.922Z,974.66
2024-01-17T04:02:07.810Z,974.66
2024-01-17T04:03:06.845Z,974.61
2024-01-17T04:04:06.808Z,974.50
2024-01-17T04:05:06.791Z,974.64
2024-01-17T04:06:06.871Z,974.55
2024-01-17T04:07:06.844Z,974.55
2024-01-17T04:08:06.755Z,974.48
2024-01-17T04:09:06.826Z,974.50
2024-01-17T04:10:06.748Z,974.49
2024-01-17T04:11:06.726Z,974.47
2024-01-17T04:12:06.814Z,974.46
2024-01-17T04:13:06.695Z,974.46
2024-01-17T04:14:06.689Z,974.42
2024-01-17T04:15:06.738Z,974.43
2024-01-17T04:16:06.669Z,974.47
2024-01-17T04:17:06.779Z,974.45
2024-01-17T04:18:06.694Z,974.41
2024-01-17T04:19:06.757Z,974.49
2024-01-17T04:20:06.619Z,974.44
2024-01-17T04:21:06.704Z,974.42
2024-01-17T04:22:06.598Z,974.36
2024-01-17T04:23:07.760Z,974.42
2024-01-17T04:24:07.715Z,974.35
2024-01-17T04:25:06.551Z,974.35
2024-01-17T04:26:06.581Z,974.32
2024-01-17T04:27:06.614Z,974.35
2024-01-17T04:28:06.536Z,974.27
2024-01-17T04:29:06.513Z,974.30
2024-01-17T04:30:06.735Z,974.29
2024-01-17T04:31:06.604Z,974.21
2024-01-17T04:32:06.474Z,974.25
2024-01-17T04:33:06.720Z,974.14
2024-01-17T04:34:06.721Z,974.16
2024-01-17T04:35:06.433Z,974.17
2024-01-17T04:36:06.493Z,974.17
2024-01-17T04:37:06.454Z,974.13
2024-01-17T04:38:06.410Z,974.11
2024-01-17T04:39:06.414Z,974.09
2024-01-17T04:40:06.408Z,974.11
2024-01-17T04:41:06.388Z,974.02
2024-01-17T04:42:06.425Z,973.99
2024-01-17T04:43:06.343Z,973.94
2024-01-17T04:44:06.355Z,973.97
2024-01-17T04:45:06.457Z,973.83
2024-01-17T04:46:06.316Z,973.86
2024-01-17T04:47:06.329Z,973.82
2024-01-17T04:48:06.369Z,973.85
2024-01-17T04:49:06.530Z,973.84
2024-01-17T04:50:06.370Z,973.88
2024-01-17T04:51:06.349Z,973.88
2024-01-17T04:52:06.273Z,973.81
2024-01-17T04:53:06.221Z,973.77
2024-01-17T04:54:07.314Z,973.76
2024-01-17T04:55:06.227Z,973.69
2024-01-17T04:56:06.203Z,973.69
2024-01-17T04:57:06.272Z,973.70
2024-01-17T04:58:06.197Z,973.65
2024-01-17T04:59:06.168Z,973.63
2024-01-17T05:00:06.231Z,973.65
2024-01-17T05:01:06.219Z,973.57
2024-01-17T05:02:06.136Z,973.55
2024-01-17T05:03:06.164Z,973.50
2024-01-17T05:04:06.232Z,973.51
2024-01-17T05:05:06.278Z,973.48
2024-01-17T05:06:06.225Z,973.43
2024-01-17T05:07:06.118Z,973.44
2024-01-17T05:08:06.097Z,973.40
2024-01-17T05:09:06.212Z,973.37
2024-01-17T05:10:06.106Z,973.37
2024-01-17T05:11:06.043Z,973.35
2024-01-17T05:12:06.102Z,973.30
2024-01-17T05:13:06.062Z,973.27
2024-01-17T05:14:06.064Z,973.24
2024-01-17T05:15:06.171Z,973.26
2024-01-17T05:16:06.027Z,973.23
2024-01-17T05:17:06.079Z,973.17
2024-01-17T05:18:06.043Z,973.13
2024-01-17T05:19:06.157Z,973.12
2024-01-17T05:20:05.999Z,973.15
2024-01-17T05:21:05.969Z,973.05
2024-01-17T05:22:05.956Z,973.07
2024-01-17T05:23:05.966Z,973.08
2024-01-17T05:24:06.039Z,973.00
2024-01-17T05:25:05.910Z,972.98
2024-01-17T05:26:05.954Z,972.93
2024-01-17T05:27:05.933Z,972.94
2024-01-17T05:28:05.882Z,972.99
2024-01-17T05:29:05.911Z,973.02
2024-01-17T05:30:05.959Z,972.93
2024-01-17T05:31:05.986Z,973.00
2024-01-17T05:32:05.862Z,972.86
2024-01-17T05:33:06.271Z,972.82
2024-01-17T05:34:06.066Z,972.76
2024-01-17T05:35:05.866Z,972.74
2024-01-17T05:36:05.839Z,972.67
2024-01-17T05:37:05.882Z,972.71
2024-01-17T05:38:05.780Z,972.65
2024-01-17T05:39:05.891Z,972.64
2024-01-17T05:40:05.810Z,972.58
2024-01-17T05:41:05.770Z,972.59
2024-01-17T05:42:05.799Z,972.53
2024-01-17T05:43:05.751Z,972.54
2024-01-17T05:44:05.742Z,972.55
2024-01-17T05:45:05.793Z,972.61
2024-01-17T05:46:05.709Z,972.58
2024-01-17T05:47:05.735Z,972.59
2024-01-17T05:48:05.787Z,972.63
2024-01-17T05:49:05.776Z,972.54
2024-01-17T05:50:05.699Z,972.49
2024-01-17T05:51:05.668Z,972.54
2024-01-17T05:52:05.641Z,972.47
2024-01-17T05:53:05.749Z,972.51
2024-01-17T05:54:05.699Z,972.52
2024-01-17T05:55:05.605Z,972.43
2024-01-17T05:56:05.666Z,972.44
2024-01-17T05:57:05.699Z,972.41
2024-01-17T05:58:05.575Z,972.46
2024-01-17T05:59:05.586Z,972.41
2024-01-17T06:00:05.707Z,972.41
2024-01-17T06:01:05.559Z,972.34
2024-01-17T06:02:05.554Z,972.34
2024-01-17T06:03:05.585Z,972.34
2024-01-17T06:04:05.549Z,972.23
2024-01-17T06:05:05.503Z,972.24
2024-01-17T06:06:05.581Z,972.21
2024-01-17T06:07:05.544Z,972.18
2024-01-17T06:08:05.502Z,972.16
2024-01-17T06:09:05.542Z,972.14
2024-01-17T06:10:05.521Z,972.18
2024-01-17T06:11:05.454Z,972.06
2024-01-17T06:12:05.469Z,972.09
2024-01-17T06:13:05.460Z,971.99
2024-01-17T06:14:06.422Z,972.05
2024-01-17T06:15:05.465Z,971.98
2024-01-17T06:16:05.386Z,971.99
2024-01-17T06:17:05.427Z,971.94
2024-01-17T06:18:05.438Z,971.96
2024-01-17T06:19:05.432Z,971.95
2024-01-17T06:20:05.344Z,971.95
2024-01-17T06:21:05.418Z,971.98
2024-01-17T06:22:05.324Z,971.96
2024-01-17T06:23:05.343Z,972.01
2024-01-17T06:24:05.405Z,972.00
2024-01-17T06:25:06.297Z,971.97
2024-01-17T06:26:05.280Z,972.00
2024-01-17T06:27:06.394Z,971.86
2024-01-17T06:28:06.292Z,971.87
2024-01-17T06:29:05.251Z,971.82
2024-01-17T06:30:05.326Z,971.76
2024-01-17T06:31:05.274Z,971.82
2024-01-17T06:32:05.216Z,971.82
2024-01-17T06:33:05.384Z,971.78
2024-01-17T06:34:05.381Z,971.78
2024-01-17T06:35:05.238Z,971.77
2024-01-17T06:36:05.203Z,971.80
2024-01-17T06:37:05.183Z,971.85
2024-01-17T06:38:05.148Z,971.85
2024-01-17T06:39:05.250Z,971.77
2024-01-17T06:40:05.149Z,971.73
2024-01-17T06:41:05.159Z,971.75
2024-01-17T06:42:05.180Z,971.72
2024-01-17T06:43:05.143Z,971.73
2024-01-17T06:44:05.107Z,971.70
2024-01-17T06:45:05.100Z,971.73
2024-01-17T06:46:05.106Z,971.68
2024-01-17T06:47:05.127Z,971.69
2024-01-17T06:48:05.166Z,971.62
2024-01-17T06:49:05.167Z,971.63
2024-01-17T06:50:05.096Z,971.63
2024-01-17T06:51:05.085Z,971.62
2024-01-17T06:52:05.046Z,971.63
2024-01-17T06:53:05.009Z,971.65
2024-01-17T06:54:05.030Z,971.53
2024-01-17T06:55:04.973Z,971.52
2024-01-17T06:56:04.999Z,971.49
2024-01-17T06:57:05.001Z,971.52
2024-01-17T06:58:04.977Z,971.47
2024-01-17T06:59:04.928Z,971.47
2024-01-17T07:00:05.007Z,971.43
2024-01-17T07:01:05.040Z,971.42
2024-01-17T07:02:04.909Z,971.46
2024-01-17T07:03:05.001Z,971.40
2024-01-17T07:04:04.978Z,971.44
2024-01-17T07:05:04.910Z,971.43
2024-01-17T07:06:04.922Z,971.40
2024-01-17T07:07:04.914Z,971.41
2024-01-17T07:08:04.889Z,971.37
2024-01-17T07:09:04.849Z,971.32
2024-01-17T07:10:04.851Z,971.25
2024-01-17T07:11:04.805Z,971.26
2024-01-17T07:12:04.851Z,971.23
2024-01-17T07:13:04.835Z,971.26
2024-01-17T07:14:04.902Z,971.24
2024-01-17T07:15:04.819Z,971.20
2024-01-17T07:16:04.759Z,971.22
2024-01-17T07:17:04.809Z,971.25
2024-01-17T07:18:04.827Z,971.26
2024-01-17T07:19:04.725Z,971.27
2024-01-17T07:20:04.733Z,971.28
2024-01-17T07:21:04.770Z,971.30
2024-01-17T07:22:04.752Z,971.31
2024-01-17T07:23:04.693Z,971.26
2024-01-17T07:24:04.750Z,971.31
2024-01-17T07:25:04.697Z,971.25
2024-01-17T07:26:04.657Z,971.28
2024-01-17T07:27:04.748Z,971.23
2024-01-17T07:28:04.652Z,971.18
2024-01-17T07:29:04.665Z,971.14
2024-01-17T07:30:04.673Z,971.14
2024-01-17T07:31:04.637Z,971.13
2024-01-17T07:32:04.606Z,971.01
2024-01-17T07:33:04.745Z,971.00
2024-01-17T07:34:04.756Z,971.04
2024-01-17T07:35:04.556Z,970.94
2024-01-17T07:36:04.597Z,970.92
2024-01-17T07:37:05.556Z,970.80
2024-01-17T07:38:04.566Z,970.88
2024-01-17T07:39:04.523Z,970.87
2024-01-17T07:40:04.512Z,970.87
2024-01-17T07:41:04.572Z,970.85
2024-01-17T07:42:04.589Z,970.83
2024-01-17T07:43:04.522Z,970.88
2024-01-17T07:44:04.488Z,970.78
2024-01-17T07:45:04.481Z,970.76
2024-01-17T07:46:04.443Z,970.75
2024-01-17T07:47:04.484Z,970.76
2024-01-17T07:48:04.516Z,970.69
2024-01-17T07:49:04.490Z,970.69
2024-01-17T07:50:04.525Z,970.68
2024-01-17T07:51:04.522Z,970.66
2024-01-17T07:52:04.385Z,970.60
2024-01-17T07:53:04.356Z,970.58
2024-01-17T07:54:04.400Z,970.60
2024-01-17T07:55:07.742Z,970.65
2024-01-17T07:56:05.345Z,970.56
2024-01-17T07:57:04.325Z,970.47
2024-01-17T07:58:04.342Z,970.47
2024-01-17T07:59:05.326Z,970.50
2024-01-17T08:00:04.346Z,970.44
2024-01-17T08:01:04.360Z,970.46
2024-01-17T08:02:04.293Z,970.40
2024-01-17T08:03:04.368Z,970.35
2024-01-17T08:04:04.324Z,970.32
2024-01-17T08:05:04.270Z,970.32
2024-01-17T08:06:04.370Z,970.28
2024-01-17T08:07:04.307Z,970.22
2024-01-17T08:08:04.230Z,970.26
2024-01-17T08:09:04.289Z,970.32
2024-01-17T08:10:07.207Z,970.22
2024-01-17T08:11:04.200Z,970.29
2024-01-17T08:12:04.243Z,970.20
2024-01-17T08:13:04.157Z,970.19
2024-01-17T08:14:04.178Z,970.17
2024-01-17T08:15:04.327Z,970.16
2024-01-17T08:16:04.134Z,970.10
2024-01-17T08:17:04.143Z,970.10
2024-01-17T08:18:04.266Z,970.22
2024-01-17T08:19:04.214Z,970.11
2024-01-17T08:20:04.083Z,970.04
2024-01-17T08:21:04.131Z,970.05
2024-01-17T08:22:04.071Z,970.00
2024-01-17T08:23:04.072Z,970.00
2024-01-17T08:24:04.100Z,969.89
2024-01-17T08:25:04.075Z,969.90
2024-01-17T08:26:04.042Z,969.87
2024-01-17T08:27:04.080Z,969.80
2024-01-17T08:28:04.044Z,969.85
2024-01-17T08:29:04.024Z,969.81
2024-01-17T08:30:04.059Z,969.81
2024-01-17T08:31:04.011Z,969.80
2024-01-17T08:32:04.018Z,969.75
2024-01-17T08:33:04.171Z,969.76
2024-01-17T08:34:04.108Z,969.73
2024-01-17T08:35:04.205Z,969.59
2024-01-17T08:36:04.012Z,969.67
2024-01-17T08:37:03.908Z,969.57
2024-01-17T08:38:03.934Z,969.53
2024-01-17T08:39:03.984Z,969.49
2024-01-17T08:40:03.892Z,969.50
2024-01-17T08:41:03.923Z,969.51
2024-01-17T08:42:03.915Z,969.43
2024-01-17T08:43:03.836Z,969.44
2024-01-17T08:44:04.004Z,969.38
2024-01-17T08:45:03.941Z,969.36
2024-01-17T08:46:03.836Z,969.38
2024-01-17T08:47:03.836Z,969.30
2024-01-17T08:48:03.845Z,969.26
2024-01-17T08:49:03.933Z,969.19
2024-01-17T08:50:03.860Z,969.17
2024-01-17T08:51:03.855Z,969.18
2024-01-17T08:52:03.751Z,969.11
2024-01-17T08:53:03.760Z,969.07
2024-01-17T08:54:03.814Z,969.03
2024-01-17T08:55:03.826Z,969.04
2024-01-17T08:56:03.739Z,968.95
2024-01-17T08:57:03.788Z,968.97
2024-01-17T08:58:03.697Z,968.98
2024-01-17T08:59:03.707Z,968.93
2024-01-17T09:00:03.762Z,968.84
2024-01-17T09:01:03.739Z,968.85
2024-01-17T09:02:03.717Z,968.84
2024-01-17T09:03:03.772Z,968.84
2024-01-17T09:04:03.635Z,968.75
2024-01-17T09:05:03.747Z,968.73
2024-01-17T09:06:03.755Z,968.72
2024-01-17T09:07:03.643Z,968.74
2024-01-17T09:08:03.660Z,968.69
2024-01-17T09:09:03.683Z,968.69
2024-01-17T09:10:03.584Z,968.62
2024-01-17T09:11:03.600Z,968.66
2024-01-17T09:12:03.646Z,968.56
2024-01-17T09:13:03.559Z,968.54
2024-01-17T09:14:03.534Z,968.57
2024-01-17T09:15:03.625Z,968.54
2024-01-17T09:16:03.516Z,968.52
2024-01-17T09:17:03.514Z,968.49
2024-01-17T09:18:03.658Z,968.50
2024-01-17T09:19:03.619Z,968.47
2024-01-17T09:20:03.554Z,968.47
2024-01-17T09:21:03.583Z,968.46
2024-01-17T09:22:03.508Z,968.43
2024-01-17T09:23:03.465Z,968.39
2024-01-17T09:24:03.477Z,968.39
2024-01-17T09:25:03.450Z,968.42
2024-01-17T09:26:06.127Z,968.42
2024-01-17T09:27:03.525Z,968.37
2024-01-17T09:28:03.412Z,968.41
2024-01-17T09:29:03.386Z,968.31
2024-01-17T09:30:03.406Z,968.28
2024-01-17T09:31:03.385Z,968.28
2024-01-17T09:32:03.385Z,968.34
2024-01-17T09:33:03.623Z,968.33
2024-01-17T09:34:03.690Z,968.30
2024-01-17T09:35:04.347Z,968.34
2024-01-17T09:36:03.704Z,968.28
2024-01-17T09:37:03.320Z,968.34
2024-01-17T09:38:04.711Z,968.30
2024-01-17T09:39:04.359Z,968.25
2024-01-17T09:40:03.265Z,968.29
2024-01-17T09:41:03.291Z,968.26
2024-01-17T09:42:03.258Z,968.22
2024-01-17T09:43:09.778Z,968.16
2024-01-17T09:44:04.381Z,968.27
2024-01-17T09:45:03.329Z,968.17
2024-01-17T09:46:03.202Z,968.13
2024-01-17T09:47:04.228Z,968.12
2024-01-17T09:48:03.303Z,968.12
2024-01-17T09:49:05.169Z,968.10
2024-01-17T09:50:04.327Z,968.02
2024-01-17T09:51:03.302Z,968.00
2024-01-17T09:52:03.168Z,967.98
2024-01-17T09:53:03.159Z,967.96
2024-01-17T09:54:03.196Z,967.99
2024-01-17T09:55:03.084Z,967.83
2024-01-17T09:56:03.095Z,967.87
2024-01-17T09:57:03.131Z,967.84
2024-01-17T09:58:03.078Z,967.83
2024-01-17T09:59:04.120Z,967.87
2024-01-17T10:00:04.119Z,967.72
2024-01-17T10:01:03.087Z,967.74
2024-01-17T10:02:03.049Z,967.67
2024-01-17T10:03:03.141Z,967.65
2024-01-17T10:04:03.081Z,967.69
2024-01-17T10:05:03.040Z,967.61
2024-01-17T10:06:03.293Z,967.54
2024-01-17T10:07:03.089Z,967.68
2024-01-17T10:08:02.992Z,967.66
2024-01-17T10:09:02.942Z,967.68
2024-01-17T10:10:02.953Z,967.68
2024-01-17T10:11:02.997Z,967.66
2024-01-17T10:12:03.001Z,967.61
2024-01-17T10:13:02.898Z,967.66
2024-01-17T10:14:02.940Z,967.68
2024-01-17T10:15:02.934Z,967.66
2024-01-17T10:16:02.885Z,967.56
2024-01-17T10:17:02.913Z,967.48
2024-01-17T10:18:02.947Z,967.54
2024-01-17T10:19:02.980Z,967.49
2024-01-17T10:20:03.024Z,967.50
2024-01-17T10:21:02.897Z,967.43
2024-01-17T10:22:02.826Z,967.38
2024-01-17T10:23:02.841Z,967.36
2024-01-17T10:24:02.867Z,967.37
2024-01-17T10:25:02.800Z,967.29
2024-01-17T10:26:02.778Z,967.34
2024-01-17T10:27:02.821Z,967.29
2024-01-17T10:28:02.793Z,967.27
2024-01-17T10:29:02.749Z,967.24
2024-01-17T10:30:02.908Z,967.23
2024-01-17T10:31:02.748Z,967.21
2024-01-17T10:32:02.731Z,967.12
2024-01-17T10:33:02.840Z,967.17
2024-01-17T10:34:02.814Z,967.19
2024-01-17T10:35:03.525Z,967.13
2024-01-17T10:36:03.776Z,967.10
2024-01-17T10:37:02.671Z,967.08
2024-01-17T10:38:02.673Z,967.06
2024-01-17T10:39:02.687Z,967.02
2024-01-17T10:40:02.636Z,966.97
2024-01-17T10:41:02.628Z,966.93
2024-01-17T10:42:02.650Z,966.93
2024-01-17T10:43:02.603Z,966.91
2024-01-17T10:44:02.595Z,966.89
2024-01-17T10:45:02.620Z,966.92
2024-01-17T10:46:02.557Z,966.78
2024-01-17T10:47:02.559Z,966.78
2024-01-17T10:48:02.658Z,966.73
2024-01-17T10:49:02.891Z,966.73
2024-01-17T10:50:02.563Z,966.68
2024-01-17T10:51:02.547Z,966.64
2024-01-17T10:52:02.479Z,966.64
2024-01-17T10:53:03.496Z,966.68
2024-01-17T10:54:02.515Z,966.60
2024-01-17T10:55:02.455Z,966.55
2024-01-17T10:56:02.484Z,966.56
2024-01-17T10:57:02.529Z,966.56
2024-01-17T10:58:02.452Z,966.55
2024-01-17T10:59:02.430Z,966.52
2024-01-17T11:00:02.508Z,966.52
2024-01-17T11:01:02.441Z,966.49
2024-01-17T11:02:02.414Z,966.52
2024-01-17T11:03:02.423Z,966.53
2024-01-17T11:04:02.415Z,966.44
2024-01-17T11:05:02.377Z,966.49
2024-01-17T11:06:02.472Z,966.46
2024-01-17T11:07:02.490Z,966.41
2024-01-17T11:08:02.322Z,966.41
2024-01-17T11:09:02.382Z,966.37
2024-01-17T11:10:02.284Z,966.34
2024-01-17T11:11:02.304Z,966.29
2024-01-17T11:12:02.369Z,966.34
2024-01-17T11:13:02.257Z,966.29
2024-01-17T11:14:02.272Z,966.26
2024-01-17T11:15:05.944Z,966.28
2024-01-17T11:16:04.256Z,966.26
2024-01-17T11:17:02.240Z,966.23
2024-01-17T11:18:02.440Z,966.18
2024-01-17T11:19:02.310Z,966.19
2024-01-17T11:20:02.245Z,966.19
2024-01-17T11:21:02.248Z,966.16
2024-01-17T11:22:02.209Z,966.08
2024-01-17T11:23:02.151Z,966.02
2024-01-17T11:24:02.245Z,966.06
2024-01-17T11:25:02.161Z,966.09
2024-01-17T11:26:02.121Z,966.00
2024-01-17T11:27:02.169Z,966.00
2024-01-17T11:28:02.125Z,966.02
2024-01-17T11:29:02.107Z,966.01
2024-01-17T11:30:02.138Z,966.02
2024-01-17T11:31:02.094Z,965.96
2024-01-17T11:32:02.105Z,965.97
2024-01-17T11:33:02.204Z,965.94
2024-01-17T11:34:03.235Z,965.94
2024-01-17T11:35:02.027Z,965.88
2024-01-17T11:36:02.130Z,965.86
2024-01-17T11:37:02.026Z,965.89
2024-01-17T11:38:02.009Z,965.83
2024-01-17T11:39:01.999Z,965.82
2024-01-17T11:40:03.027Z,965.87
2024-01-17T11:41:02.017Z,965.82
2024-01-17T11:42:02.008Z,965.82
2024-01-17T11:43:01.965Z,965.83
2024-01-17T11:44:02.948Z,965.75
2024-01-17T11:45:09.633Z,965.69
2024-01-17T11:46:03.948Z,965.69
2024-01-17T11:47:01.925Z,965.66
2024-01-17T11:48:01.937Z,965.61
2024-01-17T11:49:01.947Z,965.61
2024-01-17T11:50:01.965Z,965.61
2024-01-17T11:51:01.976Z,965.56
2024-01-17T11:52:01.925Z,965.49
2024-01-17T11:53:01.875Z,965.46
2024-01-17T11:54:01.894Z,965.47
2024-01-17T11:55:01.904Z,965.46
2024-01-17T11:56:04.167Z,965.40
2024-01-17T11:57:01.831Z,965.46
2024-01-17T11:58:01.787Z,965.32
2024-01-17T11:59:01.821Z,965.30
2024-01-17T12:00:01.877Z,965.34
2024-01-17T12:01:01.906Z,965.36
2024-01-17T12:02:01.757Z,965.33
2024-01-17T12:03:01.840Z,965.38
2024-01-17T12:04:01.736Z,965.33
2024-01-17T12:05:01.746Z,965.25
2024-01-17T12:06:01.781Z,965.34
2024-01-17T12:07:01.753Z,965.28
2024-01-17T12:08:01.744Z,965.24
2024-01-17T12:09:01.685Z,965.26
2024-01-17T12:10:01.666Z,965.25
2024-01-17T12:11:01.679Z,965.23
2024-01-17T12:12:01.775Z,965.16
2024-01-17T12:13:01.657Z,965.23
2024-01-17T12:14:01.660Z,965.10
2024-01-17T12:15:01.749Z,965.11
2024-01-17T12:16:01.683Z,965.11
2024-01-17T12:17:01.689Z,965.07
2024-01-17T12:18:01.750Z,965.06
2024-01-17T12:19:02.097Z,965.14
2024-01-17T12:20:01.695Z,965.13
2024-01-17T12:21:01.566Z,965.08
2024-01-17T12:22:01.525Z,965.07
2024-01-17T12:23:01.627Z,965.01
2024-01-17T12:24:01.594Z,965.06
2024-01-17T12:25:01.490Z,965.01
2024-01-17T12:26:01.651Z,964.97
2024-01-17T12:27:01.544Z,964.92
2024-01-17T12:28:01.472Z,964.88